sensor_id;sensor_type;location;lat;lon;timestamp;P1;durP1;ratioP1;P2;durP2;ratioP2
15443;SDS011;7822;48.146;11.576;2023-02-13T00:00:41;2.33;;;2.13;;
15443;SDS011;7822;48.146;11.576;2023-02-13T00:03:08;2.00;;;1.80;;
15443;SDS011;7822;48.146;11.576;2023-02-13T00:05:36;2.27;;;2.07;;
15443;SDS011;7822;48.146;11.576;2023-02-13T00:08:04;2.50;;;2.23;;
15443;SDS011;7822;48.146;11.576;2023-02-13T00:10:31;2.27;;;2.07;;
15443;SDS011;7822;48.146;11.576;2023-02-13T00:12:59;2.30;;;2.10;;
15443;SDS011;7822;48.146;11.576;2023-02-13T00:15:27;3.13;;;1.93;;
15443;SDS011;7822;48.146;11.576;2023-02-13T00:17:56;1.90;;;1.80;;
15443;SDS011;7822;48.146;11.576;2023-02-13T00:20:23;1.83;;;1.70;;
15443;SDS011;7822;48.146;11.576;2023-02-13T00:22:51;2.37;;;2.17;;
15443;SDS011;7822;48.146;11.576;2023-02-13T00:25:19;2.50;;;2.30;;
15443;SDS011;7822;48.146;11.576;2023-02-13T00:27:46;2.00;;;1.80;;
15443;SDS011;7822;48.146;11.576;2023-02-13T00:30:14;2.37;;;2.17;;
15443;SDS011;7822;48.146;11.576;2023-02-13T00:32:42;1.90;;;1.80;;
15443;SDS011;7822;48.146;11.576;2023-02-13T00:35:11;2.27;;;2.07;;
15443;SDS011;7822;48.146;11.576;2023-02-13T00:37:39;2.50;;;1.80;;
15443;SDS011;7822;48.146;11.576;2023-02-13T00:40:07;1.77;;;1.67;;
15443;SDS011;7822;48.146;11.576;2023-02-13T00:42:35;2.20;;;2.00;;
15443;SDS011;7822;48.146;11.576;2023-02-13T00:45:03;2.47;;;2.00;;
15443;SDS011;7822;48.146;11.576;2023-02-13T00:47:31;2.17;;;1.97;;
15443;SDS011;7822;48.146;11.576;2023-02-13T00:49:59;2.33;;;2.13;;
15443;SDS011;7822;48.146;11.576;2023-02-13T00:52:28;2.20;;;2.00;;
15443;SDS011;7822;48.146;11.576;2023-02-13T00:54:55;2.23;;;2.00;;
15443;SDS011;7822;48.146;11.576;2023-02-13T00:57:23;1.70;;;1.60;;
15443;SDS011;7822;48.146;11.576;2023-02-13T00:59:51;2.73;;;2.30;;
15443;SDS011;7822;48.146;11.576;2023-02-13T01:02:18;2.33;;;2.13;;
15443;SDS011;7822;48.146;11.576;2023-02-13T01:04:46;2.13;;;1.90;;
15443;SDS011;7822;48.146;11.576;2023-02-13T01:07:13;2.30;;;2.03;;
15443;SDS011;7822;48.146;11.576;2023-02-13T01:09:43;2.20;;;2.00;;
15443;SDS011;7822;48.146;11.576;2023-02-13T01:12:11;1.80;;;1.70;;
15443;SDS011;7822;48.146;11.576;2023-02-13T01:14:38;2.13;;;1.93;;
15443;SDS011;7822;48.146;11.576;2023-02-13T01:17:06;2.20;;;2.03;;
15443;SDS011;7822;48.146;11.576;2023-02-13T01:19:34;1.90;;;1.70;;
15443;SDS011;7822;48.146;11.576;2023-02-13T01:22:01;1.80;;;1.70;;
15443;SDS011;7822;48.146;11.576;2023-02-13T01:24:30;1.87;;;1.73;;
15443;SDS011;7822;48.146;11.576;2023-02-13T01:27:00;2.30;;;2.03;;
15443;SDS011;7822;48.146;11.576;2023-02-13T01:29:28;2.43;;;2.23;;
15443;SDS011;7822;48.146;11.576;2023-02-13T01:31:56;2.43;;;1.80;;
15443;SDS011;7822;48.146;11.576;2023-02-13T01:34:24;3.07;;;2.20;;
15443;SDS011;7822;48.146;11.576;2023-02-13T01:36:51;2.47;;;2.27;;
15443;SDS011;7822;48.146;11.576;2023-02-13T01:39:19;2.77;;;2.00;;
15443;SDS011;7822;48.146;11.576;2023-02-13T01:41:47;2.40;;;1.90;;
15443;SDS011;7822;48.146;11.576;2023-02-13T01:47:14;2.20;;;2.00;;
15443;SDS011;7822;48.146;11.576;2023-02-13T01:49:45;2.30;;;1.73;;
15443;SDS011;7822;48.146;11.576;2023-02-13T01:52:13;2.10;;;2.00;;
15443;SDS011;7822;48.146;11.576;2023-02-13T01:54:42;2.13;;;1.93;;
15443;SDS011;7822;48.146;11.576;2023-02-13T01:57:12;2.07;;;1.97;;
15443;SDS011;7822;48.146;11.576;2023-02-13T01:59:43;1.87;;;1.77;;
15443;SDS011;7822;48.146;11.576;2023-02-13T02:02:16;2.97;;;2.40;;
15443;SDS011;7822;48.146;11.576;2023-02-13T02:04:45;2.27;;;2.07;;
15443;SDS011;7822;48.146;11.576;2023-02-13T02:07:16;2.40;;;2.20;;
15443;SDS011;7822;48.146;11.576;2023-02-13T02:09:47;2.03;;;1.93;;
15443;SDS011;7822;48.146;11.576;2023-02-13T02:12:17;2.30;;;2.10;;
15443;SDS011;7822;48.146;11.576;2023-02-13T02:14:52;2.20;;;2.00;;
15443;SDS011;7822;48.146;11.576;2023-02-13T02:17:22;2.20;;;1.87;;
15443;SDS011;7822;48.146;11.576;2023-02-13T02:19:53;1.90;;;1.80;;
15443;SDS011;7822;48.146;11.576;2023-02-13T02:22:43;2.53;;;2.33;;
15443;SDS011;7822;48.146;11.576;2023-02-13T02:25:32;2.27;;;2.07;;
15443;SDS011;7822;48.146;11.576;2023-02-13T02:28:19;2.13;;;1.90;;
15443;SDS011;7822;48.146;11.576;2023-02-13T02:31:14;2.23;;;2.03;;
15443;SDS011;7822;48.146;11.576;2023-02-13T02:34:01;2.00;;;1.80;;
15443;SDS011;7822;48.146;11.576;2023-02-13T02:36:43;2.43;;;2.23;;
15443;SDS011;7822;48.146;11.576;2023-02-13T02:39:21;3.20;;;2.47;;
15443;SDS011;7822;48.146;11.576;2023-02-13T02:41:57;2.43;;;2.23;;
15443;SDS011;7822;48.146;11.576;2023-02-13T02:44:36;2.27;;;2.07;;
15443;SDS011;7822;48.146;11.576;2023-02-13T02:47:13;2.20;;;2.00;;
15443;SDS011;7822;48.146;11.576;2023-02-13T02:50:12;2.20;;;2.00;;
15443;SDS011;7822;48.146;11.576;2023-02-13T02:52:52;2.40;;;2.10;;
15443;SDS011;7822;48.146;11.576;2023-02-13T02:55:30;2.17;;;1.97;;
15443;SDS011;7822;48.146;11.576;2023-02-13T02:58:07;2.30;;;2.00;;
15443;SDS011;7822;48.146;11.576;2023-02-13T03:00:56;2.33;;;2.13;;
15443;SDS011;7822;48.146;11.576;2023-02-13T03:03:45;1.97;;;1.80;;
15443;SDS011;7822;48.146;11.576;2023-02-13T03:06:33;2.97;;;2.20;;
15443;SDS011;7822;48.146;11.576;2023-02-13T03:09:05;1.97;;;1.83;;
15443;SDS011;7822;48.146;11.576;2023-02-13T03:11:56;2.30;;;2.10;;
15443;SDS011;7822;48.146;11.576;2023-02-13T03:14:42;2.13;;;1.87;;
15443;SDS011;7822;48.146;11.576;2023-02-13T03:17:10;1.87;;;1.77;;
15443;SDS011;7822;48.146;11.576;2023-02-13T03:20:02;2.20;;;2.00;;
15443;SDS011;7822;48.146;11.576;2023-02-13T03:23:05;2.00;;;1.80;;
15443;SDS011;7822;48.146;11.576;2023-02-13T03:25:44;2.10;;;1.90;;
15443;SDS011;7822;48.146;11.576;2023-02-13T03:28:26;2.57;;;2.37;;
15443;SDS011;7822;48.146;11.576;2023-02-13T03:31:14;1.80;;;1.70;;
15443;SDS011;7822;48.146;11.576;2023-02-13T03:33:55;1.73;;;1.63;;
15443;SDS011;7822;48.146;11.576;2023-02-13T03:36:28;1.87;;;1.77;;
15443;SDS011;7822;48.146;11.576;2023-02-13T03:39:28;2.20;;;2.00;;
15443;SDS011;7822;48.146;11.576;2023-02-13T03:42:07;2.33;;;2.00;;
15443;SDS011;7822;48.146;11.576;2023-02-13T03:44:42;2.30;;;2.10;;
15443;SDS011;7822;48.146;11.576;2023-02-13T03:47:12;2.27;;;2.07;;
15443;SDS011;7822;48.146;11.576;2023-02-13T03:49:42;1.93;;;1.80;;
15443;SDS011;7822;48.146;11.576;2023-02-13T03:52:33;2.10;;;1.90;;
15443;SDS011;7822;48.146;11.576;2023-02-13T03:55:08;1.90;;;1.80;;
15443;SDS011;7822;48.146;11.576;2023-02-13T03:57:58;2.07;;;1.87;;
15443;SDS011;7822;48.146;11.576;2023-02-13T04:00:47;1.87;;;1.77;;
15443;SDS011;7822;48.146;11.576;2023-02-13T04:03:19;2.00;;;1.90;;
15443;SDS011;7822;48.146;11.576;2023-02-13T04:05:53;1.90;;;1.80;;
15443;SDS011;7822;48.146;11.576;2023-02-13T04:08:24;1.90;;;1.80;;
15443;SDS011;7822;48.146;11.576;2023-02-13T04:10:56;1.80;;;1.70;;
15443;SDS011;7822;48.146;11.576;2023-02-13T04:13:31;2.30;;;2.10;;
15443;SDS011;7822;48.146;11.576;2023-02-13T04:16:02;1.90;;;1.70;;
15443;SDS011;7822;48.146;11.576;2023-02-13T04:18:36;2.50;;;2.30;;
15443;SDS011;7822;48.146;11.576;2023-02-13T04:21:05;1.63;;;1.53;;
15443;SDS011;7822;48.146;11.576;2023-02-13T04:23:34;2.00;;;1.90;;
15443;SDS011;7822;48.146;11.576;2023-02-13T04:26:04;2.37;;;2.17;;
15443;SDS011;7822;48.146;11.576;2023-02-13T04:28:34;2.17;;;1.97;;
15443;SDS011;7822;48.146;11.576;2023-02-13T04:31:02;2.13;;;2.00;;
15443;SDS011;7822;48.146;11.576;2023-02-13T04:33:29;1.80;;;1.70;;
15443;SDS011;7822;48.146;11.576;2023-02-13T04:35:57;2.27;;;2.00;;
15443;SDS011;7822;48.146;11.576;2023-02-13T04:38:25;1.70;;;1.60;;
15443;SDS011;7822;48.146;11.576;2023-02-13T04:40:52;1.90;;;1.70;;
15443;SDS011;7822;48.146;11.576;2023-02-13T04:43:22;2.10;;;1.97;;
15443;SDS011;7822;48.146;11.576;2023-02-13T04:45:50;2.20;;;2.00;;
15443;SDS011;7822;48.146;11.576;2023-02-13T04:48:18;1.60;;;1.50;;
15443;SDS011;7822;48.146;11.576;2023-02-13T04:50:46;1.73;;;1.63;;
15443;SDS011;7822;48.146;11.576;2023-02-13T04:53:14;1.90;;;1.80;;
15443;SDS011;7822;48.146;11.576;2023-02-13T04:55:41;1.93;;;1.83;;
15443;SDS011;7822;48.146;11.576;2023-02-13T04:58:09;2.13;;;2.00;;
15443;SDS011;7822;48.146;11.576;2023-02-13T05:00:38;2.07;;;1.70;;
15443;SDS011;7822;48.146;11.576;2023-02-13T05:03:07;1.60;;;1.50;;
15443;SDS011;7822;48.146;11.576;2023-02-13T05:05:35;1.93;;;1.83;;
15443;SDS011;7822;48.146;11.576;2023-02-13T05:08:04;2.33;;;2.13;;
15443;SDS011;7822;48.146;11.576;2023-02-13T05:10:32;1.60;;;1.50;;
15443;SDS011;7822;48.146;11.576;2023-02-13T05:13:00;1.93;;;1.80;;
15443;SDS011;7822;48.146;11.576;2023-02-13T05:15:28;2.00;;;1.90;;
15443;SDS011;7822;48.146;11.576;2023-02-13T05:17:57;1.60;;;1.50;;
15443;SDS011;7822;48.146;11.576;2023-02-13T05:20:25;1.93;;;1.70;;
15443;SDS011;7822;48.146;11.576;2023-02-13T05:22:53;1.90;;;1.80;;
15443;SDS011;7822;48.146;11.576;2023-02-13T05:25:39;1.93;;;1.83;;
15443;SDS011;7822;48.146;11.576;2023-02-13T05:28:08;1.70;;;1.60;;
15443;SDS011;7822;48.146;11.576;2023-02-13T05:30:56;1.70;;;1.60;;
15443;SDS011;7822;48.146;11.576;2023-02-13T05:33:25;2.17;;;1.97;;
15443;SDS011;7822;48.146;11.576;2023-02-13T05:35:53;1.80;;;1.70;;
15443;SDS011;7822;48.146;11.576;2023-02-13T05:38:21;2.03;;;1.83;;
15443;SDS011;7822;48.146;11.576;2023-02-13T05:40:48;1.80;;;1.70;;
15443;SDS011;7822;48.146;11.576;2023-02-13T05:43:16;2.20;;;1.90;;
15443;SDS011;7822;48.146;11.576;2023-02-13T05:45:45;2.20;;;2.00;;
15443;SDS011;7822;48.146;11.576;2023-02-13T05:48:13;2.13;;;2.00;;
15443;SDS011;7822;48.146;11.576;2023-02-13T05:50:42;1.80;;;1.70;;
15443;SDS011;7822;48.146;11.576;2023-02-13T05:53:12;1.93;;;1.80;;
15443;SDS011;7822;48.146;11.576;2023-02-13T05:55:39;1.73;;;1.63;;
15443;SDS011;7822;48.146;11.576;2023-02-13T05:58:07;1.80;;;1.70;;
15443;SDS011;7822;48.146;11.576;2023-02-13T06:00:35;2.17;;;2.03;;
15443;SDS011;7822;48.146;11.576;2023-02-13T06:03:02;1.93;;;1.83;;
15443;SDS011;7822;48.146;11.576;2023-02-13T06:05:30;1.90;;;1.70;;
15443;SDS011;7822;48.146;11.576;2023-02-13T06:07:59;1.90;;;1.80;;
15443;SDS011;7822;48.146;11.576;2023-02-13T06:10:27;1.97;;;1.77;;
15443;SDS011;7822;48.146;11.576;2023-02-13T06:12:55;1.93;;;1.80;;
15443;SDS011;7822;48.146;11.576;2023-02-13T06:15:22;1.57;;;1.47;;
15443;SDS011;7822;48.146;11.576;2023-02-13T06:17:50;8.77;;;2.40;;
15443;SDS011;7822;48.146;11.576;2023-02-13T06:20:18;1.83;;;1.73;;
15443;SDS011;7822;48.146;11.576;2023-02-13T06:22:46;1.90;;;1.80;;
15443;SDS011;7822;48.146;11.576;2023-02-13T06:25:16;2.07;;;1.77;;
15443;SDS011;7822;48.146;11.576;2023-02-13T06:27:44;1.50;;;1.40;;
15443;SDS011;7822;48.146;11.576;2023-02-13T06:30:12;1.93;;;1.77;;
15443;SDS011;7822;48.146;11.576;2023-02-13T06:32:40;1.77;;;1.67;;
15443;SDS011;7822;48.146;11.576;2023-02-13T06:35:08;2.13;;;1.93;;
15443;SDS011;7822;48.146;11.576;2023-02-13T06:37:36;1.70;;;1.60;;
15443;SDS011;7822;48.146;11.576;2023-02-13T06:40:05;1.80;;;1.70;;
15443;SDS011;7822;48.146;11.576;2023-02-13T06:42:35;1.67;;;1.57;;
15443;SDS011;7822;48.146;11.576;2023-02-13T06:45:03;1.70;;;1.60;;
15443;SDS011;7822;48.146;11.576;2023-02-13T06:47:31;1.70;;;1.60;;
15443;SDS011;7822;48.146;11.576;2023-02-13T06:49:59;2.07;;;1.67;;
15443;SDS011;7822;48.146;11.576;2023-02-13T06:52:26;1.80;;;1.70;;
15443;SDS011;7822;48.146;11.576;2023-02-13T06:54:55;1.73;;;1.63;;
15443;SDS011;7822;48.146;11.576;2023-02-13T06:57:23;2.03;;;1.83;;
15443;SDS011;7822;48.146;11.576;2023-02-13T06:59:52;2.00;;;1.80;;
15443;SDS011;7822;48.146;11.576;2023-02-13T07:02:20;2.13;;;2.03;;
15443;SDS011;7822;48.146;11.576;2023-02-13T07:04:47;1.80;;;1.67;;
15443;SDS011;7822;48.146;11.576;2023-02-13T07:07:15;2.43;;;2.20;;
15443;SDS011;7822;48.146;11.576;2023-02-13T07:09:43;1.70;;;1.60;;
15443;SDS011;7822;48.146;11.576;2023-02-13T07:12:10;2.13;;;1.93;;
15443;SDS011;7822;48.146;11.576;2023-02-13T07:14:38;2.10;;;1.90;;
15443;SDS011;7822;48.146;11.576;2023-02-13T07:17:07;1.80;;;1.70;;
15443;SDS011;7822;48.146;11.576;2023-02-13T07:19:36;1.87;;;1.77;;
15443;SDS011;7822;48.146;11.576;2023-02-13T07:22:03;1.70;;;1.60;;
15443;SDS011;7822;48.146;11.576;2023-02-13T07:24:31;1.97;;;1.77;;
15443;SDS011;7822;48.146;11.576;2023-02-13T07:27:00;1.73;;;1.63;;
15443;SDS011;7822;48.146;11.576;2023-02-13T07:29:28;1.70;;;1.60;;
15443;SDS011;7822;48.146;11.576;2023-02-13T07:31:55;1.77;;;1.67;;
15443;SDS011;7822;48.146;11.576;2023-02-13T07:34:24;1.93;;;1.83;;
15443;SDS011;7822;48.146;11.576;2023-02-13T07:36:52;1.97;;;1.80;;
15443;SDS011;7822;48.146;11.576;2023-02-13T07:39:20;1.90;;;1.80;;
15443;SDS011;7822;48.146;11.576;2023-02-13T07:41:47;2.07;;;1.97;;
15443;SDS011;7822;48.146;11.576;2023-02-13T07:44:15;2.03;;;1.80;;
15443;SDS011;7822;48.146;11.576;2023-02-13T07:46:42;1.90;;;1.70;;
15443;SDS011;7822;48.146;11.576;2023-02-13T07:49:10;1.97;;;1.87;;
15443;SDS011;7822;48.146;11.576;2023-02-13T07:51:39;2.00;;;1.83;;
15443;SDS011;7822;48.146;11.576;2023-02-13T07:54:07;1.90;;;1.80;;
15443;SDS011;7822;48.146;11.576;2023-02-13T07:56:35;1.83;;;1.73;;
15443;SDS011;7822;48.146;11.576;2023-02-13T07:59:24;1.93;;;1.67;;
15443;SDS011;7822;48.146;11.576;2023-02-13T08:02:46;1.57;;;1.47;;
15443;SDS011;7822;48.146;11.576;2023-02-13T08:06:18;2.13;;;1.93;;
15443;SDS011;7822;48.146;11.576;2023-02-13T08:24:32;1.80;;;1.70;;
15443;SDS011;7822;48.146;11.576;2023-02-13T08:28:00;1.90;;;1.80;;
15443;SDS011;7822;48.146;11.576;2023-02-13T08:31:20;1.70;;;1.60;;
15443;SDS011;7822;48.146;11.576;2023-02-13T08:38:24;2.20;;;2.00;;
15443;SDS011;7822;48.146;11.576;2023-02-13T08:45:41;1.97;;;1.87;;
15443;SDS011;7822;48.146;11.576;2023-02-13T08:49:30;2.00;;;1.80;;
15443;SDS011;7822;48.146;11.576;2023-02-13T08:52:58;2.17;;;1.97;;
15443;SDS011;7822;48.146;11.576;2023-02-13T09:17:23;3.67;;;3.20;;
15443;SDS011;7822;48.146;11.576;2023-02-13T09:20:56;4.30;;;3.77;;
15443;SDS011;7822;48.146;11.576;2023-02-13T09:24:10;4.43;;;4.03;;
15443;SDS011;7822;48.146;11.576;2023-02-13T09:27:34;4.70;;;4.20;;
15443;SDS011;7822;48.146;11.576;2023-02-13T09:30:57;5.43;;;4.40;;
15443;SDS011;7822;48.146;11.576;2023-02-13T09:34:05;4.77;;;4.27;;
15443;SDS011;7822;48.146;11.576;2023-02-13T09:37:40;4.90;;;4.50;;
15443;SDS011;7822;48.146;11.576;2023-02-13T09:40:55;5.43;;;4.90;;
15443;SDS011;7822;48.146;11.576;2023-02-13T09:47:46;6.03;;;4.90;;
15443;SDS011;7822;48.146;11.576;2023-02-13T10:01:42;6.10;;;5.50;;
15443;SDS011;7822;48.146;11.576;2023-02-13T10:04:48;6.37;;;5.77;;
15443;SDS011;7822;48.146;11.576;2023-02-13T10:08:02;6.33;;;5.73;;
15443;SDS011;7822;48.146;11.576;2023-02-13T10:15:03;6.70;;;5.93;;
15443;SDS011;7822;48.146;11.576;2023-02-13T10:51:04;7.23;;;6.53;;
15443;SDS011;7822;48.146;11.576;2023-02-13T10:54:31;8.40;;;6.90;;
15443;SDS011;7822;48.146;11.576;2023-02-13T10:58:14;7.03;;;6.33;;
15443;SDS011;7822;48.146;11.576;2023-02-13T11:23:39;9.70;;;7.47;;
15443;SDS011;7822;48.146;11.576;2023-02-13T11:27:00;9.07;;;6.87;;
15443;SDS011;7822;48.146;11.576;2023-02-13T11:41:44;8.50;;;6.07;;
15443;SDS011;7822;48.146;11.576;2023-02-13T11:45:06;9.37;;;7.73;;
15443;SDS011;7822;48.146;11.576;2023-02-13T11:48:22;7.83;;;7.03;;
15443;SDS011;7822;48.146;11.576;2023-02-13T11:51:27;6.87;;;6.10;;
15443;SDS011;7822;48.146;11.576;2023-02-13T11:54:40;8.30;;;6.67;;
15443;SDS011;7822;48.146;11.576;2023-02-13T11:57:43;7.40;;;6.70;;
15443;SDS011;7822;48.146;11.576;2023-02-13T12:07:57;7.30;;;6.60;;
15443;SDS011;7822;48.146;11.576;2023-02-13T12:11:16;7.23;;;6.53;;
15443;SDS011;7822;48.146;11.576;2023-02-13T13:02:43;9.27;;;7.33;;
15443;SDS011;7822;48.146;11.576;2023-02-13T13:06:06;7.10;;;6.40;;
15443;SDS011;7822;48.146;11.576;2023-02-13T13:16:41;8.50;;;7.23;;
15443;SDS011;7822;48.146;11.576;2023-02-13T13:23:19;7.57;;;6.60;;
15443;SDS011;7822;48.146;11.576;2023-02-13T13:30:44;6.63;;;5.93;;
15443;SDS011;7822;48.146;11.576;2023-02-13T13:33:16;9.13;;;6.67;;
15443;SDS011;7822;48.146;11.576;2023-02-13T13:35:46;6.10;;;5.50;;
15443;SDS011;7822;48.146;11.576;2023-02-13T13:38:23;6.20;;;5.40;;
15443;SDS011;7822;48.146;11.576;2023-02-13T13:40:57;5.93;;;5.23;;
15443;SDS011;7822;48.146;11.576;2023-02-13T13:43:33;5.73;;;5.13;;
15443;SDS011;7822;48.146;11.576;2023-02-13T13:46:10;6.70;;;5.27;;
15443;SDS011;7822;48.146;11.576;2023-02-13T13:49:04;5.40;;;4.83;;
15443;SDS011;7822;48.146;11.576;2023-02-13T13:51:39;5.07;;;4.60;;
15443;SDS011;7822;48.146;11.576;2023-02-13T13:54:23;5.40;;;4.90;;
15443;SDS011;7822;48.146;11.576;2023-02-13T13:57:05;5.23;;;4.40;;
15443;SDS011;7822;48.146;11.576;2023-02-13T14:02:46;5.13;;;4.47;;
15443;SDS011;7822;48.146;11.576;2023-02-13T14:11:33;4.60;;;4.03;;
15443;SDS011;7822;48.146;11.576;2023-02-13T14:20:34;4.00;;;3.70;;
15443;SDS011;7822;48.146;11.576;2023-02-13T14:23:13;4.97;;;3.57;;
15443;SDS011;7822;48.146;11.576;2023-02-13T14:25:45;4.33;;;3.90;;
15443;SDS011;7822;48.146;11.576;2023-02-13T14:28:22;4.10;;;3.70;;
15443;SDS011;7822;48.146;11.576;2023-02-13T14:31:02;4.27;;;3.97;;
15443;SDS011;7822;48.146;11.576;2023-02-13T14:33:34;4.43;;;4.03;;
15443;SDS011;7822;48.146;11.576;2023-02-13T14:36:05;4.20;;;3.80;;
15443;SDS011;7822;48.146;11.576;2023-02-13T14:38:35;4.20;;;3.87;;
15443;SDS011;7822;48.146;11.576;2023-02-13T14:41:03;4.23;;;3.87;;
15443;SDS011;7822;48.146;11.576;2023-02-13T14:43:33;4.80;;;4.30;;
15443;SDS011;7822;48.146;11.576;2023-02-13T14:46:11;4.60;;;4.20;;
15443;SDS011;7822;48.146;11.576;2023-02-13T14:48:50;5.17;;;4.03;;
15443;SDS011;7822;48.146;11.576;2023-02-13T14:51:25;4.50;;;4.10;;
15443;SDS011;7822;48.146;11.576;2023-02-13T14:54:01;4.03;;;3.63;;
15443;SDS011;7822;48.146;11.576;2023-02-13T14:56:33;4.93;;;4.17;;
15443;SDS011;7822;48.146;11.576;2023-02-13T14:59:05;4.10;;;3.70;;
15443;SDS011;7822;48.146;11.576;2023-02-13T15:01:41;4.70;;;4.20;;
15443;SDS011;7822;48.146;11.576;2023-02-13T15:04:14;4.23;;;3.93;;
15443;SDS011;7822;48.146;11.576;2023-02-13T15:06:46;4.50;;;4.17;;
15443;SDS011;7822;48.146;11.576;2023-02-13T15:09:21;4.50;;;4.10;;
15443;SDS011;7822;48.146;11.576;2023-02-13T15:11:53;4.77;;;4.37;;
15443;SDS011;7822;48.146;11.576;2023-02-13T15:14:26;4.33;;;3.80;;
15443;SDS011;7822;48.146;11.576;2023-02-13T15:16:58;4.67;;;4.20;;
15443;SDS011;7822;48.146;11.576;2023-02-13T15:19:31;5.13;;;4.30;;
15443;SDS011;7822;48.146;11.576;2023-02-13T15:22:03;5.17;;;4.70;;
15443;SDS011;7822;48.146;11.576;2023-02-13T15:24:35;4.33;;;3.93;;
15443;SDS011;7822;48.146;11.576;2023-02-13T15:27:14;5.03;;;4.60;;
15443;SDS011;7822;48.146;11.576;2023-02-13T15:29:54;5.40;;;4.90;;
15443;SDS011;7822;48.146;11.576;2023-02-13T15:32:28;5.03;;;4.57;;
15443;SDS011;7822;48.146;11.576;2023-02-13T15:34:59;5.00;;;4.50;;
15443;SDS011;7822;48.146;11.576;2023-02-13T15:37:28;4.53;;;4.13;;
15443;SDS011;7822;48.146;11.576;2023-02-13T15:40:13;4.90;;;4.30;;
15443;SDS011;7822;48.146;11.576;2023-02-13T15:42:41;4.97;;;4.20;;
15443;SDS011;7822;48.146;11.576;2023-02-13T15:45:12;5.30;;;4.80;;
15443;SDS011;7822;48.146;11.576;2023-02-13T15:47:43;5.13;;;4.63;;
15443;SDS011;7822;48.146;11.576;2023-02-13T15:50:18;5.17;;;4.67;;
15443;SDS011;7822;48.146;11.576;2023-02-13T15:52:50;4.97;;;4.47;;
15443;SDS011;7822;48.146;11.576;2023-02-13T15:55:19;5.93;;;4.63;;
15443;SDS011;7822;48.146;11.576;2023-02-13T15:57:48;5.50;;;5.00;;
15443;SDS011;7822;48.146;11.576;2023-02-13T16:00:19;5.87;;;5.27;;
15443;SDS011;7822;48.146;11.576;2023-02-13T16:02:50;6.03;;;5.20;;
15443;SDS011;7822;48.146;11.576;2023-02-13T16:05:20;5.67;;;4.90;;
15443;SDS011;7822;48.146;11.576;2023-02-13T16:08:21;5.33;;;4.83;;
15443;SDS011;7822;48.146;11.576;2023-02-13T16:11:09;5.70;;;5.13;;
15443;SDS011;7822;48.146;11.576;2023-02-13T16:13:59;5.87;;;4.93;;
15443;SDS011;7822;48.146;11.576;2023-02-13T16:16:32;5.73;;;5.23;;
15443;SDS011;7822;48.146;11.576;2023-02-13T16:19:02;5.60;;;5.10;;
15443;SDS011;7822;48.146;11.576;2023-02-13T16:21:30;5.83;;;5.23;;
15443;SDS011;7822;48.146;11.576;2023-02-13T16:24:03;5.00;;;4.50;;
15443;SDS011;7822;48.146;11.576;2023-02-13T16:26:33;5.50;;;5.00;;
15443;SDS011;7822;48.146;11.576;2023-02-13T16:29:07;6.10;;;5.47;;
15443;SDS011;7822;48.146;11.576;2023-02-13T16:31:35;6.43;;;5.37;;
15443;SDS011;7822;48.146;11.576;2023-02-13T16:34:12;6.07;;;5.47;;
15443;SDS011;7822;48.146;11.576;2023-02-13T16:36:40;7.03;;;5.23;;
15443;SDS011;7822;48.146;11.576;2023-02-13T16:39:10;6.17;;;5.13;;
15443;SDS011;7822;48.146;11.576;2023-02-13T16:41:44;5.77;;;5.00;;
15443;SDS011;7822;48.146;11.576;2023-02-13T17:05:47;7.77;;;6.07;;
15443;SDS011;7822;48.146;11.576;2023-02-13T17:08:14;8.00;;;6.30;;
15443;SDS011;7822;48.146;11.576;2023-02-13T17:10:42;7.37;;;6.43;;
15443;SDS011;7822;48.146;11.576;2023-02-13T17:13:28;5.90;;;5.30;;
15443;SDS011;7822;48.146;11.576;2023-02-13T17:15:56;8.43;;;5.80;;
15443;SDS011;7822;48.146;11.576;2023-02-13T17:18:25;8.33;;;6.20;;
15443;SDS011;7822;48.146;11.576;2023-02-13T17:20:54;6.70;;;6.00;;
15443;SDS011;7822;48.146;11.576;2023-02-13T17:23:23;7.33;;;5.70;;
15443;SDS011;7822;48.146;11.576;2023-02-13T17:25:51;7.53;;;5.87;;
15443;SDS011;7822;48.146;11.576;2023-02-13T17:28:21;6.50;;;5.73;;
15443;SDS011;7822;48.146;11.576;2023-02-13T17:30:50;6.37;;;5.70;;
15443;SDS011;7822;48.146;11.576;2023-02-13T17:33:22;6.77;;;5.63;;
15443;SDS011;7822;48.146;11.576;2023-02-13T17:35:51;6.80;;;5.37;;
15443;SDS011;7822;48.146;11.576;2023-02-13T17:38:21;8.30;;;5.70;;
15443;SDS011;7822;48.146;11.576;2023-02-13T17:40:49;7.50;;;5.57;;
15443;SDS011;7822;48.146;11.576;2023-02-13T17:43:17;7.50;;;5.77;;
15443;SDS011;7822;48.146;11.576;2023-02-13T17:45:46;5.83;;;5.23;;
15443;SDS011;7822;48.146;11.576;2023-02-13T17:48:15;5.73;;;5.23;;
15443;SDS011;7822;48.146;11.576;2023-02-13T17:50:43;5.73;;;5.17;;
15443;SDS011;7822;48.146;11.576;2023-02-13T17:53:17;6.77;;;5.37;;
15443;SDS011;7822;48.146;11.576;2023-02-13T17:55:50;6.40;;;5.80;;
15443;SDS011;7822;48.146;11.576;2023-02-13T17:58:18;6.17;;;5.57;;
15443;SDS011;7822;48.146;11.576;2023-02-13T18:00:46;6.00;;;5.40;;
15443;SDS011;7822;48.146;11.576;2023-02-13T18:03:13;6.63;;;5.47;;
15443;SDS011;7822;48.146;11.576;2023-02-13T18:05:41;5.43;;;4.93;;
15443;SDS011;7822;48.146;11.576;2023-02-13T18:08:10;6.27;;;5.67;;
15443;SDS011;7822;48.146;11.576;2023-02-13T18:10:39;6.20;;;5.47;;
15443;SDS011;7822;48.146;11.576;2023-02-13T18:13:07;6.57;;;5.10;;
15443;SDS011;7822;48.146;11.576;2023-02-13T18:15:37;6.63;;;5.87;;
15443;SDS011;7822;48.146;11.576;2023-02-13T18:18:07;5.53;;;5.03;;
15443;SDS011;7822;48.146;11.576;2023-02-13T18:20:35;5.77;;;5.00;;
15443;SDS011;7822;48.146;11.576;2023-02-13T18:23:03;6.17;;;5.57;;
15443;SDS011;7822;48.146;11.576;2023-02-13T18:25:32;5.50;;;5.00;;
15443;SDS011;7822;48.146;11.576;2023-02-13T18:28:01;5.77;;;5.00;;
15443;SDS011;7822;48.146;11.576;2023-02-13T18:30:29;6.40;;;5.80;;
15443;SDS011;7822;48.146;11.576;2023-02-13T18:32:57;5.53;;;5.03;;
15443;SDS011;7822;48.146;11.576;2023-02-13T18:35:25;5.57;;;4.97;;
15443;SDS011;7822;48.146;11.576;2023-02-13T18:37:53;6.67;;;4.83;;
15443;SDS011;7822;48.146;11.576;2023-02-13T18:40:20;6.07;;;5.47;;
15443;SDS011;7822;48.146;11.576;2023-02-13T18:42:48;5.97;;;4.87;;
15443;SDS011;7822;48.146;11.576;2023-02-13T18:45:19;5.90;;;5.13;;
15443;SDS011;7822;48.146;11.576;2023-02-13T18:47:46;5.53;;;4.93;;
15443;SDS011;7822;48.146;11.576;2023-02-13T18:50:14;5.93;;;5.40;;
15443;SDS011;7822;48.146;11.576;2023-02-13T18:52:42;5.87;;;5.27;;
15443;SDS011;7822;48.146;11.576;2023-02-13T18:55:09;5.83;;;5.03;;
15443;SDS011;7822;48.146;11.576;2023-02-13T18:57:37;6.10;;;4.80;;
15443;SDS011;7822;48.146;11.576;2023-02-13T19:00:08;6.13;;;4.30;;
15443;SDS011;7822;48.146;11.576;2023-02-13T19:02:39;5.43;;;4.93;;
15443;SDS011;7822;48.146;11.576;2023-02-13T19:05:07;5.53;;;4.77;;
15443;SDS011;7822;48.146;11.576;2023-02-13T19:07:35;5.57;;;4.93;;
15443;SDS011;7822;48.146;11.576;2023-02-13T19:10:03;4.70;;;4.20;;
15443;SDS011;7822;48.146;11.576;2023-02-13T19:12:32;6.43;;;5.20;;
15443;SDS011;7822;48.146;11.576;2023-02-13T19:14:59;5.07;;;4.67;;
15443;SDS011;7822;48.146;11.576;2023-02-13T19:17:27;6.60;;;5.10;;
15443;SDS011;7822;48.146;11.576;2023-02-13T19:19:56;5.67;;;5.17;;
15443;SDS011;7822;48.146;11.576;2023-02-13T19:22:24;5.47;;;4.70;;
15443;SDS011;7822;48.146;11.576;2023-02-13T19:24:51;6.00;;;5.23;;
15443;SDS011;7822;48.146;11.576;2023-02-13T19:27:19;4.73;;;4.33;;
15443;SDS011;7822;48.146;11.576;2023-02-13T19:29:47;5.87;;;4.60;;
15443;SDS011;7822;48.146;11.576;2023-02-13T19:32:14;5.60;;;5.00;;
15443;SDS011;7822;48.146;11.576;2023-02-13T19:34:42;5.50;;;4.87;;
15443;SDS011;7822;48.146;11.576;2023-02-13T19:37:11;5.40;;;4.73;;
15443;SDS011;7822;48.146;11.576;2023-02-13T19:39:39;5.33;;;4.60;;
15443;SDS011;7822;48.146;11.576;2023-02-13T19:42:06;4.83;;;4.33;;
15443;SDS011;7822;48.146;11.576;2023-02-13T19:44:34;5.33;;;4.83;;